Weather at Invercargill Airport

Public forecast

Using degrees Celsius for public forecast. Weather courtesy of forecast.io.

Closest aviation weather report (METAR) to Invercargill Airport

Closest report is Queenstown International Airport, 85.4 nm (158.2 km) NNE.

2024/07/17 12:30 (retrieved 35 minutes ago)

NZQN 171230Z AUTO 03005KT 0600 FZFG VV001 M01/M01 Q1008

Closest aviation forecast (TAF) to Invercargill Airport

Closest forecast is Christchurch International Airport, 250.8 nm (464.5 km) NE.

2024/07/17 12:22 (retrieved 43 minutes ago)

TAF NZCH 171106Z 1712/1818 VRB02KT 0500 FG BKN003 BECMG 1722/1800 9999 NSW BKN008 BECMG 1800/1802 BKN014 BECMG 1804/1806 06010KT BKN008 PROB30 1806/1818 0500 FG